sensor_id;sensor_type;location;lat;lon;timestamp;P1;durP1;ratioP1;P2;durP2;ratioP2
70985;SDS011;58645;43.068;25.610;2023-03-04T00:00:29;60.90;;;27.48;;
70985;SDS011;58645;43.068;25.610;2023-03-04T00:02:55;57.00;;;24.40;;
70985;SDS011;58645;43.068;25.610;2023-03-04T00:05:21;56.10;;;23.80;;
70985;SDS011;58645;43.068;25.610;2023-03-04T00:07:47;56.17;;;21.02;;
70985;SDS011;58645;43.068;25.610;2023-03-04T00:10:13;60.50;;;26.15;;
70985;SDS011;58645;43.068;25.610;2023-03-04T00:12:38;58.40;;;23.92;;
70985;SDS011;58645;43.068;25.610;2023-03-04T00:15:04;55.47;;;25.25;;
70985;SDS011;58645;43.068;25.610;2023-03-04T00:17:30;59.15;;;25.75;;
70985;SDS011;58645;43.068;25.610;2023-03-04T00:19:56;56.83;;;24.75;;
70985;SDS011;58645;43.068;25.610;2023-03-04T00:22:22;57.28;;;25.65;;
70985;SDS011;58645;43.068;25.610;2023-03-04T00:24:48;61.35;;;24.42;;
70985;SDS011;58645;43.068;25.610;2023-03-04T00:27:14;60.20;;;25.95;;
70985;SDS011;58645;43.068;25.610;2023-03-04T00:29:39;60.10;;;26.42;;
70985;SDS011;58645;43.068;25.610;2023-03-04T00:32:05;61.92;;;26.50;;
70985;SDS011;58645;43.068;25.610;2023-03-04T00:34:31;58.00;;;25.25;;
70985;SDS011;58645;43.068;25.610;2023-03-04T00:36:57;68.82;;;26.98;;
70985;SDS011;58645;43.068;25.610;2023-03-04T00:39:28;60.20;;;26.35;;
70985;SDS011;58645;43.068;25.610;2023-03-04T00:41:54;74.30;;;29.73;;
70985;SDS011;58645;43.068;25.610;2023-03-04T00:44:20;69.95;;;29.02;;
70985;SDS011;58645;43.068;25.610;2023-03-04T00:46:45;68.38;;;26.63;;
70985;SDS011;58645;43.068;25.610;2023-03-04T00:49:11;66.40;;;29.02;;
70985;SDS011;58645;43.068;25.610;2023-03-04T00:51:37;63.65;;;28.52;;
70985;SDS011;58645;43.068;25.610;2023-03-04T00:54:03;71.32;;;30.95;;
70985;SDS011;58645;43.068;25.610;2023-03-04T00:56:28;71.90;;;29.77;;
70985;SDS011;58645;43.068;25.610;2023-03-04T00:58:54;66.38;;;29.52;;
70985;SDS011;58645;43.068;25.610;2023-03-04T01:01:20;70.38;;;30.27;;
70985;SDS011;58645;43.068;25.610;2023-03-04T01:03:45;62.83;;;27.17;;
70985;SDS011;58645;43.068;25.610;2023-03-04T01:06:11;62.95;;;27.40;;
70985;SDS011;58645;43.068;25.610;2023-03-04T01:08:38;63.63;;;27.27;;
70985;SDS011;58645;43.068;25.610;2023-03-04T01:11:04;64.40;;;27.35;;
70985;SDS011;58645;43.068;25.610;2023-03-04T01:13:30;60.53;;;26.02;;
70985;SDS011;58645;43.068;25.610;2023-03-04T01:15:55;61.88;;;26.45;;
70985;SDS011;58645;43.068;25.610;2023-03-04T01:18:22;66.68;;;26.00;;
70985;SDS011;58645;43.068;25.610;2023-03-04T01:20:48;142.75;;;31.98;;
70985;SDS011;58645;43.068;25.610;2023-03-04T01:23:14;189.73;;;30.45;;
70985;SDS011;58645;43.068;25.610;2023-03-04T01:25:39;223.82;;;31.65;;
70985;SDS011;58645;43.068;25.610;2023-03-04T01:28:05;125.68;;;26.00;;
70985;SDS011;58645;43.068;25.610;2023-03-04T01:30:32;68.63;;;24.63;;
70985;SDS011;58645;43.068;25.610;2023-03-04T01:32:57;83.00;;;26.42;;
70985;SDS011;58645;43.068;25.610;2023-03-04T01:35:23;105.13;;;28.27;;
70985;SDS011;58645;43.068;25.610;2023-03-04T01:37:49;145.63;;;29.88;;
70985;SDS011;58645;43.068;25.610;2023-03-04T01:40:15;103.72;;;25.13;;
70985;SDS011;58645;43.068;25.610;2023-03-04T01:42:40;108.40;;;27.45;;
70985;SDS011;58645;43.068;25.610;2023-03-04T01:45:10;173.68;;;29.25;;
70985;SDS011;58645;43.068;25.610;2023-03-04T01:47:42;232.15;;;34.67;;
70985;SDS011;58645;43.068;25.610;2023-03-04T01:50:16;110.47;;;28.05;;
70985;SDS011;58645;43.068;25.610;2023-03-04T01:52:47;189.02;;;33.83;;
70985;SDS011;58645;43.068;25.610;2023-03-04T01:55:14;102.60;;;27.75;;
70985;SDS011;58645;43.068;25.610;2023-03-04T01:57:42;161.07;;;31.13;;
70985;SDS011;58645;43.068;25.610;2023-03-04T02:00:20;117.50;;;26.08;;
70985;SDS011;58645;43.068;25.610;2023-03-04T02:02:53;140.00;;;27.65;;
70985;SDS011;58645;43.068;25.610;2023-03-04T02:05:22;131.68;;;31.02;;
70985;SDS011;58645;43.068;25.610;2023-03-04T02:07:49;91.70;;;25.42;;
70985;SDS011;58645;43.068;25.610;2023-03-04T02:10:16;200.65;;;33.78;;
70985;SDS011;58645;43.068;25.610;2023-03-04T02:12:42;168.23;;;30.52;;
70985;SDS011;58645;43.068;25.610;2023-03-04T02:15:09;148.55;;;28.65;;
70985;SDS011;58645;43.068;25.610;2023-03-04T02:17:36;158.65;;;30.55;;
70985;SDS011;58645;43.068;25.610;2023-03-04T02:20:17;131.55;;;29.67;;
70985;SDS011;58645;43.068;25.610;2023-03-04T02:28:33;140.30;;;29.98;;
70985;SDS011;58645;43.068;25.610;2023-03-04T02:30:59;145.43;;;31.20;;
70985;SDS011;58645;43.068;25.610;2023-03-04T02:33:24;152.23;;;30.65;;
70985;SDS011;58645;43.068;25.610;2023-03-04T02:35:51;169.30;;;35.30;;
70985;SDS011;58645;43.068;25.610;2023-03-04T02:38:16;153.02;;;29.70;;
70985;SDS011;58645;43.068;25.610;2023-03-04T02:40:43;85.35;;;26.88;;
70985;SDS011;58645;43.068;25.610;2023-03-04T02:43:12;105.95;;;28.27;;
70985;SDS011;58645;43.068;25.610;2023-03-04T02:45:43;179.40;;;30.30;;
70985;SDS011;58645;43.068;25.610;2023-03-04T02:48:10;96.97;;;25.90;;
70985;SDS011;58645;43.068;25.610;2023-03-04T02:50:41;170.30;;;26.77;;
70985;SDS011;58645;43.068;25.610;2023-03-04T02:53:12;148.10;;;27.60;;
70985;SDS011;58645;43.068;25.610;2023-03-04T02:55:39;148.10;;;28.65;;
70985;SDS011;58645;43.068;25.610;2023-03-04T02:58:06;102.28;;;22.27;;
70985;SDS011;58645;43.068;25.610;2023-03-04T03:00:33;136.40;;;27.27;;
70985;SDS011;58645;43.068;25.610;2023-03-04T03:02:59;109.80;;;24.35;;
70985;SDS011;58645;43.068;25.610;2023-03-04T03:05:25;107.78;;;26.25;;
70985;SDS011;58645;43.068;25.610;2023-03-04T03:07:55;114.97;;;25.02;;
70985;SDS011;58645;43.068;25.610;2023-03-04T03:10:21;75.95;;;21.40;;
70985;SDS011;58645;43.068;25.610;2023-03-04T03:12:47;69.43;;;22.40;;
70985;SDS011;58645;43.068;25.610;2023-03-04T03:15:13;65.18;;;22.50;;
70985;SDS011;58645;43.068;25.610;2023-03-04T03:17:39;151.73;;;26.88;;
70985;SDS011;58645;43.068;25.610;2023-03-04T03:20:04;78.97;;;22.60;;
70985;SDS011;58645;43.068;25.610;2023-03-04T03:24:57;68.43;;;26.83;;
70985;SDS011;58645;43.068;25.610;2023-03-04T03:27:22;74.55;;;25.40;;
70985;SDS011;58645;43.068;25.610;2023-03-04T03:29:48;83.57;;;25.08;;
70985;SDS011;58645;43.068;25.610;2023-03-04T03:32:14;69.75;;;26.02;;
70985;SDS011;58645;43.068;25.610;2023-03-04T03:34:39;63.90;;;24.92;;
70985;SDS011;58645;43.068;25.610;2023-03-04T03:37:05;65.22;;;22.23;;
70985;SDS011;58645;43.068;25.610;2023-03-04T03:39:31;91.28;;;22.48;;
70985;SDS011;58645;43.068;25.610;2023-03-04T03:41:57;64.28;;;21.08;;
70985;SDS011;58645;43.068;25.610;2023-03-04T03:44:22;85.70;;;22.17;;
70985;SDS011;58645;43.068;25.610;2023-03-04T03:46:48;65.28;;;22.58;;
70985;SDS011;58645;43.068;25.610;2023-03-04T03:49:14;77.40;;;21.90;;
70985;SDS011;58645;43.068;25.610;2023-03-04T03:51:41;60.08;;;21.00;;
70985;SDS011;58645;43.068;25.610;2023-03-04T03:54:07;65.72;;;22.50;;
70985;SDS011;58645;43.068;25.610;2023-03-04T03:56:33;52.53;;;20.73;;
70985;SDS011;58645;43.068;25.610;2023-03-04T03:58:58;52.85;;;19.73;;
70985;SDS011;58645;43.068;25.610;2023-03-04T04:01:24;59.75;;;22.25;;
70985;SDS011;58645;43.068;25.610;2023-03-04T04:03:50;55.20;;;22.05;;
70985;SDS011;58645;43.068;25.610;2023-03-04T04:06:16;52.05;;;20.45;;
70985;SDS011;58645;43.068;25.610;2023-03-04T04:08:42;54.03;;;22.40;;
70985;SDS011;58645;43.068;25.610;2023-03-04T04:11:11;52.03;;;19.85;;
70985;SDS011;58645;43.068;25.610;2023-03-04T04:13:37;48.83;;;19.73;;
70985;SDS011;58645;43.068;25.610;2023-03-04T04:16:03;46.75;;;20.95;;
70985;SDS011;58645;43.068;25.610;2023-03-04T04:18:29;49.58;;;20.17;;
70985;SDS011;58645;43.068;25.610;2023-03-04T04:20:55;53.38;;;21.83;;
70985;SDS011;58645;43.068;25.610;2023-03-04T04:23:21;50.85;;;21.48;;
70985;SDS011;58645;43.068;25.610;2023-03-04T04:25:47;51.53;;;20.48;;
70985;SDS011;58645;43.068;25.610;2023-03-04T04:28:13;48.50;;;19.35;;
70985;SDS011;58645;43.068;25.610;2023-03-04T04:30:39;47.97;;;17.80;;
70985;SDS011;58645;43.068;25.610;2023-03-04T04:33:05;62.78;;;31.75;;
70985;SDS011;58645;43.068;25.610;2023-03-04T04:35:31;53.92;;;25.83;;
70985;SDS011;58645;43.068;25.610;2023-03-04T04:37:59;49.17;;;22.02;;
70985;SDS011;58645;43.068;25.610;2023-03-04T04:40:24;50.63;;;20.88;;
70985;SDS011;58645;43.068;25.610;2023-03-04T04:42:50;48.42;;;18.85;;
70985;SDS011;58645;43.068;25.610;2023-03-04T04:45:16;45.85;;;20.52;;
70985;SDS011;58645;43.068;25.610;2023-03-04T04:47:42;48.50;;;20.45;;
70985;SDS011;58645;43.068;25.610;2023-03-04T04:50:08;48.72;;;20.15;;
70985;SDS011;58645;43.068;25.610;2023-03-04T04:52:34;46.28;;;20.20;;
70985;SDS011;58645;43.068;25.610;2023-03-04T04:55:00;43.70;;;19.65;;
70985;SDS011;58645;43.068;25.610;2023-03-04T04:57:26;44.95;;;18.95;;
70985;SDS011;58645;43.068;25.610;2023-03-04T04:59:52;48.88;;;20.15;;
70985;SDS011;58645;43.068;25.610;2023-03-04T05:02:18;58.17;;;26.27;;
70985;SDS011;58645;43.068;25.610;2023-03-04T05:04:44;68.82;;;29.77;;
70985;SDS011;58645;43.068;25.610;2023-03-04T05:07:10;79.68;;;30.73;;
70985;SDS011;58645;43.068;25.610;2023-03-04T05:09:35;68.85;;;29.48;;
70985;SDS011;58645;43.068;25.610;2023-03-04T05:12:01;62.33;;;25.92;;
70985;SDS011;58645;43.068;25.610;2023-03-04T05:14:27;62.47;;;26.48;;
70985;SDS011;58645;43.068;25.610;2023-03-04T05:16:53;62.70;;;23.30;;
70985;SDS011;58645;43.068;25.610;2023-03-04T05:19:19;60.30;;;24.25;;
70985;SDS011;58645;43.068;25.610;2023-03-04T05:21:45;55.35;;;22.75;;
70985;SDS011;58645;43.068;25.610;2023-03-04T05:24:11;52.95;;;22.27;;
70985;SDS011;58645;43.068;25.610;2023-03-04T05:26:36;50.72;;;22.30;;
70985;SDS011;58645;43.068;25.610;2023-03-04T05:29:02;52.60;;;21.65;;
70985;SDS011;58645;43.068;25.610;2023-03-04T05:31:28;49.25;;;22.02;;
70985;SDS011;58645;43.068;25.610;2023-03-04T05:33:54;53.50;;;22.80;;
70985;SDS011;58645;43.068;25.610;2023-03-04T05:36:20;57.17;;;23.48;;
70985;SDS011;58645;43.068;25.610;2023-03-04T05:38:46;52.75;;;21.75;;
70985;SDS011;58645;43.068;25.610;2023-03-04T05:41:12;45.00;;;20.55;;
70985;SDS011;58645;43.068;25.610;2023-03-04T05:43:38;41.55;;;19.00;;
70985;SDS011;58645;43.068;25.610;2023-03-04T05:46:07;39.40;;;19.00;;
70985;SDS011;58645;43.068;25.610;2023-03-04T05:48:37;43.03;;;18.33;;
70985;SDS011;58645;43.068;25.610;2023-03-04T05:51:03;42.55;;;19.38;;
70985;SDS011;58645;43.068;25.610;2023-03-04T05:53:28;47.60;;;21.55;;
70985;SDS011;58645;43.068;25.610;2023-03-04T05:55:54;53.08;;;22.00;;
70985;SDS011;58645;43.068;25.610;2023-03-04T05:58:20;53.08;;;23.75;;
70985;SDS011;58645;43.068;25.610;2023-03-04T06:00:46;55.80;;;26.85;;
70985;SDS011;58645;43.068;25.610;2023-03-04T06:03:16;56.22;;;24.60;;
70985;SDS011;58645;43.068;25.610;2023-03-04T06:05:44;54.58;;;26.48;;
70985;SDS011;58645;43.068;25.610;2023-03-04T06:08:10;55.30;;;25.73;;
70985;SDS011;58645;43.068;25.610;2023-03-04T06:13:03;51.20;;;24.80;;
70985;SDS011;58645;43.068;25.610;2023-03-04T06:15:28;55.13;;;25.20;;
70985;SDS011;58645;43.068;25.610;2023-03-04T06:17:54;49.75;;;25.17;;
70985;SDS011;58645;43.068;25.610;2023-03-04T06:20:20;50.97;;;24.05;;
70985;SDS011;58645;43.068;25.610;2023-03-04T06:22:46;49.67;;;23.85;;
70985;SDS011;58645;43.068;25.610;2023-03-04T06:25:11;53.33;;;25.35;;
70985;SDS011;58645;43.068;25.610;2023-03-04T06:27:37;51.50;;;24.95;;
70985;SDS011;58645;43.068;25.610;2023-03-04T06:30:03;56.50;;;26.17;;
70985;SDS011;58645;43.068;25.610;2023-03-04T06:32:29;50.72;;;25.42;;
70985;SDS011;58645;43.068;25.610;2023-03-04T06:34:55;57.92;;;26.88;;
70985;SDS011;58645;43.068;25.610;2023-03-04T06:37:20;49.63;;;24.88;;
70985;SDS011;58645;43.068;25.610;2023-03-04T06:39:46;55.55;;;24.92;;
70985;SDS011;58645;43.068;25.610;2023-03-04T06:42:13;52.00;;;26.63;;
70985;SDS011;58645;43.068;25.610;2023-03-04T06:49:31;56.25;;;25.30;;
70985;SDS011;58645;43.068;25.610;2023-03-04T06:51:56;56.40;;;27.35;;
70985;SDS011;58645;43.068;25.610;2023-03-04T06:54:22;58.85;;;26.08;;
70985;SDS011;58645;43.068;25.610;2023-03-04T06:56:48;62.35;;;28.63;;
70985;SDS011;58645;43.068;25.610;2023-03-04T06:59:14;60.17;;;25.02;;
70985;SDS011;58645;43.068;25.610;2023-03-04T07:01:40;66.45;;;29.13;;
70985;SDS011;58645;43.068;25.610;2023-03-04T07:04:06;70.68;;;29.95;;
70985;SDS011;58645;43.068;25.610;2023-03-04T07:06:31;63.97;;;29.95;;
70985;SDS011;58645;43.068;25.610;2023-03-04T07:08:57;66.75;;;32.90;;
70985;SDS011;58645;43.068;25.610;2023-03-04T07:11:23;69.72;;;31.65;;
70985;SDS011;58645;43.068;25.610;2023-03-04T07:13:49;64.25;;;30.95;;
70985;SDS011;58645;43.068;25.610;2023-03-04T07:16:17;68.43;;;31.25;;
70985;SDS011;58645;43.068;25.610;2023-03-04T07:18:45;66.07;;;31.13;;
70985;SDS011;58645;43.068;25.610;2023-03-04T07:21:12;63.83;;;28.48;;
70985;SDS011;58645;43.068;25.610;2023-03-04T07:23:39;52.42;;;26.45;;
70985;SDS011;58645;43.068;25.610;2023-03-04T07:26:05;55.65;;;29.45;;
70985;SDS011;58645;43.068;25.610;2023-03-04T07:28:32;58.17;;;29.67;;
70985;SDS011;58645;43.068;25.610;2023-03-04T07:31:19;56.30;;;27.48;;
70985;SDS011;58645;43.068;25.610;2023-03-04T07:33:56;50.90;;;26.75;;
70985;SDS011;58645;43.068;25.610;2023-03-04T07:36:23;51.80;;;24.98;;
70985;SDS011;58645;43.068;25.610;2023-03-04T07:38:49;45.72;;;24.05;;
70985;SDS011;58645;43.068;25.610;2023-03-04T07:41:18;41.75;;;20.13;;
70985;SDS011;58645;43.068;25.610;2023-03-04T07:46:11;34.72;;;19.40;;
70985;SDS011;58645;43.068;25.610;2023-03-04T07:48:37;39.00;;;18.60;;
70985;SDS011;58645;43.068;25.610;2023-03-04T07:51:07;40.33;;;20.00;;
70985;SDS011;58645;43.068;25.610;2023-03-04T07:53:38;34.90;;;19.55;;
70985;SDS011;58645;43.068;25.610;2023-03-04T07:56:05;31.10;;;16.20;;
70985;SDS011;58645;43.068;25.610;2023-03-04T07:58:32;26.90;;;14.07;;
70985;SDS011;58645;43.068;25.610;2023-03-04T08:00:58;32.83;;;16.95;;
70985;SDS011;58645;43.068;25.610;2023-03-04T08:03:24;30.88;;;16.90;;
70985;SDS011;58645;43.068;25.610;2023-03-04T08:05:50;29.55;;;16.80;;
70985;SDS011;58645;43.068;25.610;2023-03-04T08:08:16;30.85;;;16.63;;
70985;SDS011;58645;43.068;25.610;2023-03-04T08:10:41;37.15;;;20.65;;
70985;SDS011;58645;43.068;25.610;2023-03-04T08:13:07;49.40;;;26.17;;
70985;SDS011;58645;43.068;25.610;2023-03-04T08:15:33;47.28;;;23.38;;
70985;SDS011;58645;43.068;25.610;2023-03-04T08:18:06;41.78;;;21.27;;
70985;SDS011;58645;43.068;25.610;2023-03-04T08:20:32;42.85;;;21.38;;
70985;SDS011;58645;43.068;25.610;2023-03-04T08:22:57;43.83;;;22.85;;
70985;SDS011;58645;43.068;25.610;2023-03-04T08:25:23;39.75;;;20.75;;
70985;SDS011;58645;43.068;25.610;2023-03-04T08:27:49;37.88;;;19.75;;
70985;SDS011;58645;43.068;25.610;2023-03-04T08:30:14;36.30;;;19.27;;
70985;SDS011;58645;43.068;25.610;2023-03-04T08:32:40;27.92;;;16.33;;
70985;SDS011;58645;43.068;25.610;2023-03-04T08:35:06;25.70;;;12.90;;
70985;SDS011;58645;43.068;25.610;2023-03-04T08:37:32;24.80;;;14.45;;
70985;SDS011;58645;43.068;25.610;2023-03-04T08:39:58;21.40;;;13.10;;
70985;SDS011;58645;43.068;25.610;2023-03-04T08:42:23;26.58;;;15.52;;
70985;SDS011;58645;43.068;25.610;2023-03-04T08:44:49;34.25;;;18.05;;
70985;SDS011;58645;43.068;25.610;2023-03-04T08:47:15;20.23;;;11.57;;
70985;SDS011;58645;43.068;25.610;2023-03-04T08:49:41;19.38;;;10.85;;
70985;SDS011;58645;43.068;25.610;2023-03-04T08:52:06;20.17;;;10.90;;
70985;SDS011;58645;43.068;25.610;2023-03-04T08:54:32;13.25;;;7.45;;
70985;SDS011;58645;43.068;25.610;2023-03-04T08:56:58;12.45;;;7.47;;
70985;SDS011;58645;43.068;25.610;2023-03-04T08:59:24;11.80;;;6.32;;
70985;SDS011;58645;43.068;25.610;2023-03-04T09:01:49;11.30;;;7.97;;
70985;SDS011;58645;43.068;25.610;2023-03-04T09:04:15;17.55;;;9.15;;
70985;SDS011;58645;43.068;25.610;2023-03-04T09:06:41;14.35;;;8.77;;
70985;SDS011;58645;43.068;25.610;2023-03-04T09:09:07;16.30;;;8.20;;
70985;SDS011;58645;43.068;25.610;2023-03-04T09:11:32;15.75;;;9.18;;
70985;SDS011;58645;43.068;25.610;2023-03-04T09:13:58;15.38;;;8.52;;
70985;SDS011;58645;43.068;25.610;2023-03-04T09:16:24;12.75;;;7.65;;
70985;SDS011;58645;43.068;25.610;2023-03-04T09:18:50;10.82;;;6.68;;
70985;SDS011;58645;43.068;25.610;2023-03-04T09:21:15;11.38;;;6.40;;
70985;SDS011;58645;43.068;25.610;2023-03-04T09:23:41;9.10;;;6.18;;
70985;SDS011;58645;43.068;25.610;2023-03-04T09:26:24;10.68;;;7.10;;
70985;SDS011;58645;43.068;25.610;2023-03-04T09:28:52;12.30;;;7.13;;
70985;SDS011;58645;43.068;25.610;2023-03-04T09:31:19;11.55;;;7.82;;
70985;SDS011;58645;43.068;25.610;2023-03-04T09:33:46;14.15;;;7.53;;
70985;SDS011;58645;43.068;25.610;2023-03-04T09:36:12;10.23;;;6.22;;
70985;SDS011;58645;43.068;25.610;2023-03-04T09:38:39;9.98;;;6.70;;
70985;SDS011;58645;43.068;25.610;2023-03-04T09:41:06;9.98;;;6.55;;
70985;SDS011;58645;43.068;25.610;2023-03-04T09:43:50;9.68;;;5.45;;
70985;SDS011;58645;43.068;25.610;2023-03-04T09:46:24;7.90;;;5.05;;
70985;SDS011;58645;43.068;25.610;2023-03-04T09:48:56;8.90;;;5.15;;
70985;SDS011;58645;43.068;25.610;2023-03-04T09:51:32;8.65;;;6.25;;
70985;SDS011;58645;43.068;25.610;2023-03-04T09:57:32;9.52;;;5.60;;
70985;SDS011;58645;43.068;25.610;2023-03-04T10:05:30;16.90;;;8.45;;
70985;SDS011;58645;43.068;25.610;2023-03-04T10:07:59;13.80;;;9.10;;
70985;SDS011;58645;43.068;25.610;2023-03-04T10:10:42;14.77;;;7.18;;
70985;SDS011;58645;43.068;25.610;2023-03-04T10:13:10;12.32;;;7.85;;
70985;SDS011;58645;43.068;25.610;2023-03-04T10:15:43;15.38;;;8.20;;
70985;SDS011;58645;43.068;25.610;2023-03-04T10:18:17;16.60;;;8.48;;
70985;SDS011;58645;43.068;25.610;2023-03-04T10:23:27;13.30;;;7.97;;
70985;SDS011;58645;43.068;25.610;2023-03-04T10:25:55;11.50;;;6.78;;
70985;SDS011;58645;43.068;25.610;2023-03-04T10:28:24;13.65;;;8.00;;
70985;SDS011;58645;43.068;25.610;2023-03-04T10:30:56;12.68;;;8.15;;
70985;SDS011;58645;43.068;25.610;2023-03-04T10:33:28;16.23;;;8.88;;
70985;SDS011;58645;43.068;25.610;2023-03-04T10:38:41;16.90;;;10.40;;
70985;SDS011;58645;43.068;25.610;2023-03-04T10:41:11;16.08;;;10.50;;
70985;SDS011;58645;43.068;25.610;2023-03-04T10:43:41;12.23;;;7.38;;
70985;SDS011;58645;43.068;25.610;2023-03-04T10:46:11;13.20;;;7.28;;
70985;SDS011;58645;43.068;25.610;2023-03-04T10:48:37;20.25;;;10.27;;
70985;SDS011;58645;43.068;25.610;2023-03-04T10:53:41;12.23;;;6.13;;
70985;SDS011;58645;43.068;25.610;2023-03-04T10:56:29;17.35;;;11.38;;
70985;SDS011;58645;43.068;25.610;2023-03-04T11:05:20;13.30;;;7.40;;
70985;SDS011;58645;43.068;25.610;2023-03-04T11:07:51;11.55;;;6.15;;
70985;SDS011;58645;43.068;25.610;2023-03-04T11:10:30;11.57;;;6.35;;
70985;SDS011;58645;43.068;25.610;2023-03-04T11:13:11;11.95;;;6.20;;
70985;SDS011;58645;43.068;25.610;2023-03-04T11:15:50;9.88;;;5.82;;
70985;SDS011;58645;43.068;25.610;2023-03-04T11:18:17;12.98;;;6.03;;
70985;SDS011;58645;43.068;25.610;2023-03-04T11:21:05;23.83;;;14.45;;
70985;SDS011;58645;43.068;25.610;2023-03-04T11:23:46;13.73;;;8.60;;
70985;SDS011;58645;43.068;25.610;2023-03-04T11:26:18;11.65;;;5.43;;
70985;SDS011;58645;43.068;25.610;2023-03-04T11:29:00;16.70;;;8.48;;
70985;SDS011;58645;43.068;25.610;2023-03-04T11:31:37;15.07;;;8.68;;
70985;SDS011;58645;43.068;25.610;2023-03-04T11:36:58;9.80;;;5.72;;
70985;SDS011;58645;43.068;25.610;2023-03-04T11:45:02;10.65;;;5.88;;
70985;SDS011;58645;43.068;25.610;2023-03-04T11:47:56;12.00;;;5.68;;
70985;SDS011;58645;43.068;25.610;2023-03-04T11:56:15;12.13;;;6.88;;
70985;SDS011;58645;43.068;25.610;2023-03-04T11:59:05;13.75;;;8.43;;
70985;SDS011;58645;43.068;25.610;2023-03-04T12:21:30;15.02;;;8.27;;
70985;SDS011;58645;43.068;25.610;2023-03-04T12:26:49;13.80;;;7.82;;
70985;SDS011;58645;43.068;25.610;2023-03-04T12:38:09;11.48;;;7.03;;
70985;SDS011;58645;43.068;25.610;2023-03-04T12:40:52;14.80;;;7.35;;
70985;SDS011;58645;43.068;25.610;2023-03-04T12:43:42;15.15;;;7.00;;
70985;SDS011;58645;43.068;25.610;2023-03-04T12:54:54;14.50;;;6.25;;
70985;SDS011;58645;43.068;25.610;2023-03-04T12:57:23;11.85;;;6.70;;
70985;SDS011;58645;43.068;25.610;2023-03-04T13:07:46;10.57;;;6.20;;
70985;SDS011;58645;43.068;25.610;2023-03-04T13:10:33;13.95;;;6.70;;
70985;SDS011;58645;43.068;25.610;2023-03-04T13:13:00;11.02;;;6.53;;
70985;SDS011;58645;43.068;25.610;2023-03-04T13:15:36;14.20;;;6.55;;
70985;SDS011;58645;43.068;25.610;2023-03-04T13:18:29;9.88;;;6.22;;
70985;SDS011;58645;43.068;25.610;2023-03-04T13:21:04;13.68;;;6.88;;
70985;SDS011;58645;43.068;25.610;2023-03-04T13:23:30;12.73;;;6.20;;
70985;SDS011;58645;43.068;25.610;2023-03-04T13:28:27;10.35;;;5.35;;
70985;SDS011;58645;43.068;25.610;2023-03-04T14:02:12;12.43;;;7.72;;
70985;SDS011;58645;43.068;25.610;2023-03-04T14:07:29;13.45;;;7.57;;
70985;SDS011;58645;43.068;25.610;2023-03-04T14:10:04;19.27;;;10.25;;
70985;SDS011;58645;43.068;25.610;2023-03-04T14:12:54;23.55;;;13.35;;
70985;SDS011;58645;43.068;25.610;2023-03-04T14:15:24;19.15;;;10.38;;
70985;SDS011;58645;43.068;25.610;2023-03-04T14:17:55;17.75;;;9.00;;
70985;SDS011;58645;43.068;25.610;2023-03-04T14:22:52;11.52;;;7.38;;
70985;SDS011;58645;43.068;25.610;2023-03-04T14:25:23;13.82;;;7.57;;
70985;SDS011;58645;43.068;25.610;2023-03-04T14:28:05;22.48;;;14.15;;
70985;SDS011;58645;43.068;25.610;2023-03-04T14:30:34;27.90;;;15.10;;
70985;SDS011;58645;43.068;25.610;2023-03-04T14:33:00;24.95;;;13.20;;
70985;SDS011;58645;43.068;25.610;2023-03-04T14:35:30;17.90;;;10.88;;
70985;SDS011;58645;43.068;25.610;2023-03-04T14:38:58;14.30;;;8.82;;
70985;SDS011;58645;43.068;25.610;2023-03-04T14:41:14;15.32;;;8.90;;
70985;SDS011;58645;43.068;25.610;2023-03-04T14:46:38;16.33;;;9.55;;
70985;SDS011;58645;43.068;25.610;2023-03-04T14:49:11;17.85;;;9.82;;
70985;SDS011;58645;43.068;25.610;2023-03-04T14:51:48;18.02;;;10.45;;
70985;SDS011;58645;43.068;25.610;2023-03-04T14:54:33;20.02;;;10.05;;
70985;SDS011;58645;43.068;25.610;2023-03-04T14:57:26;17.23;;;8.23;;
70985;SDS011;58645;43.068;25.610;2023-03-04T14:59:54;14.75;;;8.32;;
70985;SDS011;58645;43.068;25.610;2023-03-04T15:02:24;16.50;;;7.88;;
70985;SDS011;58645;43.068;25.610;2023-03-04T15:05:07;17.10;;;9.27;;
70985;SDS011;58645;43.068;25.610;2023-03-04T15:07:39;21.50;;;11.70;;
70985;SDS011;58645;43.068;25.610;2023-03-04T15:10:07;14.10;;;9.10;;
70985;SDS011;58645;43.068;25.610;2023-03-04T15:12:36;15.45;;;7.93;;
70985;SDS011;58645;43.068;25.610;2023-03-04T15:15:04;18.92;;;8.98;;
70985;SDS011;58645;43.068;25.610;2023-03-04T15:17:56;18.02;;;8.65;;
70985;SDS011;58645;43.068;25.610;2023-03-04T15:20:38;13.73;;;7.97;;
70985;SDS011;58645;43.068;25.610;2023-03-04T15:23:04;15.38;;;8.10;;
70985;SDS011;58645;43.068;25.610;2023-03-04T15:25:36;13.48;;;7.70;;
70985;SDS011;58645;43.068;25.610;2023-03-04T15:28:04;15.15;;;9.18;;
70985;SDS011;58645;43.068;25.610;2023-03-04T15:30:36;21.00;;;10.02;;
70985;SDS011;58645;43.068;25.610;2023-03-04T15:33:04;19.73;;;10.90;;
70985;SDS011;58645;43.068;25.610;2023-03-04T15:35:34;20.25;;;10.77;;
70985;SDS011;58645;43.068;25.610;2023-03-04T15:37:59;18.02;;;10.20;;
70985;SDS011;58645;43.068;25.610;2023-03-04T15:42:56;21.20;;;10.52;;
70985;SDS011;58645;43.068;25.610;2023-03-04T15:45:28;19.80;;;10.98;;
70985;SDS011;58645;43.068;25.610;2023-03-04T15:48:00;20.08;;;11.10;;
70985;SDS011;58645;43.068;25.610;2023-03-04T15:50:32;21.70;;;10.35;;
70985;SDS011;58645;43.068;25.610;2023-03-04T15:53:13;16.77;;;9.55;;
70985;SDS011;58645;43.068;25.610;2023-03-04T15:55:51;22.65;;;9.95;;
70985;SDS011;58645;43.068;25.610;2023-03-04T15:58:18;20.00;;;11.13;;
70985;SDS011;58645;43.068;25.610;2023-03-04T16:00:44;25.88;;;13.88;;
70985;SDS011;58645;43.068;25.610;2023-03-04T16:03:12;22.05;;;11.70;;
70985;SDS011;58645;43.068;25.610;2023-03-04T16:05:43;21.08;;;11.98;;
70985;SDS011;58645;43.068;25.610;2023-03-04T16:08:11;22.58;;;12.23;;
70985;SDS011;58645;43.068;25.610;2023-03-04T16:10:39;27.15;;;15.10;;
70985;SDS011;58645;43.068;25.610;2023-03-04T16:13:17;26.80;;;13.48;;
70985;SDS011;58645;43.068;25.610;2023-03-04T16:15:45;30.30;;;12.90;;
70985;SDS011;58645;43.068;25.610;2023-03-04T16:18:12;23.92;;;13.90;;
70985;SDS011;58645;43.068;25.610;2023-03-04T16:20:39;26.98;;;13.38;;
70985;SDS011;58645;43.068;25.610;2023-03-04T16:23:12;28.90;;;12.00;;
70985;SDS011;58645;43.068;25.610;2023-03-04T16:25:49;36.08;;;16.35;;
70985;SDS011;58645;43.068;25.610;2023-03-04T16:28:19;26.60;;;14.75;;
70985;SDS011;58645;43.068;25.610;2023-03-04T16:30:46;19.27;;;10.43;;
70985;SDS011;58645;43.068;25.610;2023-03-04T16:33:12;22.30;;;12.27;;
70985;SDS011;58645;43.068;25.610;2023-03-04T16:35:39;23.60;;;12.75;;
70985;SDS011;58645;43.068;25.610;2023-03-04T16:38:08;34.17;;;17.75;;
70985;SDS011;58645;43.068;25.610;2023-03-04T16:40:49;26.05;;;16.20;;
70985;SDS011;58645;43.068;25.610;2023-03-04T16:43:15;30.38;;;17.95;;
70985;SDS011;58645;43.068;25.610;2023-03-04T16:45:41;26.42;;;15.63;;
70985;SDS011;58645;43.068;25.610;2023-03-04T16:48:08;35.58;;;21.35;;